Portada
METAR-TAF:

METAR-TAF

Aeroports :

Iranshahr, Iran

latitud: 27-12N, longitud: 060-42E, altitud: 591 m

Observació

L'informe es va fer fa 56 minuts, a les 16:00 UTC
Vent 12 kt del Oest
Temperatura 44°C
Humitat 14%
Pressió 993 hPa
Visibilitat: 8000 m
Núvols disperses a una alçada de 4000 ft
Núvols disperses a una alçada de 10000 ft

METAR: OIZI 251600Z 28012KT 8000 SCT040 SCT100 44/11 Q0993

Hora: 21:26 (16:56 UTC)


TAF: manca

Observacions i pronòstics meteorològics de més de 4000 aeroports (METAR i TAF).

Les estacions disponibles són els punts grocs i vermells al mapa.

Posi el ratolí al punt desitjat per veure el nom de l'estació.

Feu clic per veure les observacions i els pronòstics meteorològics.

Per canviar el mapa: feu clic els botons verds amb una creu de color negre per apropar; al botó verd amb un guió per allunyar la imatge; o en les fletxes verdes per a mapes adjacents.


METAR-TAF: